McQueeney, Texas
Current Conditions -  °F | °C
As of 1:51 PM on Monday 24 Nov 2014 (Local Time) from KBAZ Reporting Station
Clear Clear  
Wind Chill: 67°   Ceiling: Unl
Heat Index: 67°   Visibility: 10mi
Dew Point: 24°   Wind: 8mph
Humidity: 20%   Direction: 330°NNW
Pressure: 30.05"   Gusts: NA
Location:  29.59°N, 98.03°W
Report Text: KBAZ 241951Z 33007KT 10SM CLR 19/M04 A3005 RMK AO2 SLP172 T01941044
Loading
Personal Weather Stations






























Interactive Weather Map New forecast layout! Learn more

10-Day Weather Forecast

Advertisements
Track Severe Weather on mobile